Time;durP1;ratioP1;P1;durP2;ratioP2;P2;SDS_P1;SDS_P2;PMS_P1;PMS_P2;Temp;Humidity;BMP_temperature;BMP_pressure;BME280_temperature;BME280_humidity;BME280_pressure;Samples;Min_cycle;Max_cycle;Signal;HPM_P1;HPM_P2
2022/06/10 00:00:42;;;;;;;22.77;12.67;;;;;;;37.74;44.88;100987.44;5052941;28;20406;-73
2022/06/10 00:03:10;;;;;;;22.13;13.20;;;;;;;37.82;44.74;100989.50;5034561;28;20444;-73
2022/06/10 00:05:37;;;;;;;23.83;15.90;;;;;;;37.75;45.07;100983.63;5034588;28;20443;-73
2022/06/10 00:08:14;;;;;;;22.83;15.07;;;;;;;37.97;44.70;100986.44;5034580;28;20471;-73
2022/06/10 00:10:41;;;;;;;27.27;17.37;;;;;;;37.96;44.93;101000.31;5051004;28;20429;-73
2022/06/10 00:13:08;;;;;;;30.27;15.50;;;;;;;37.78;45.32;100993.88;5034361;28;20426;-73
2022/06/10 00:15:34;;;;;;;25.80;15.20;;;;;;;37.70;44.65;100981.03;5034456;28;21022;-73
2022/06/10 00:18:01;;;;;;;24.60;16.47;;;;;;;37.62;44.75;100958.16;5052699;28;20870;-73
2022/06/10 00:20:31;;;;;;;19.17;13.67;;;;;;;37.71;45.24;100950.16;5035315;28;20476;-73
2022/06/10 00:22:58;;;;;;;23.93;17.10;;;;;;;37.83;45.25;100953.19;5055070;28;20827;-73
2022/06/10 00:25:24;;;;;;;30.10;16.80;;;;;;;38.04;45.20;100945.41;5038249;28;20425;-73
2022/06/10 00:27:50;;;;;;;29.67;15.30;;;;;;;37.95;45.41;100949.97;5054911;28;20476;-73
2022/06/10 00:30:19;;;;;;;23.80;16.73;;;;;;;38.05;45.99;100923.44;5038281;28;20459;-74
2022/06/10 00:32:45;;;;;;;30.00;17.37;;;;;;;37.95;46.41;100929.09;5054914;28;20415;-73
2022/06/10 00:35:12;;;;;;;24.97;17.10;;;;;;;38.02;45.97;100920.53;5015117;28;20460;-74
2022/06/10 00:37:39;;;;;;;30.37;16.43;;;;;;;37.98;46.16;100917.63;5015115;28;20424;-73
2022/06/10 00:40:07;;;;;;;22.97;16.90;;;;;;;37.78;47.06;100928.88;5016844;28;20409;-73
2022/06/10 00:42:35;;;;;;;25.90;15.97;;;;;;;37.81;46.82;100923.72;5014862;28;20484;-73
2022/06/10 00:45:02;;;;;;;33.93;18.13;;;;;;;37.92;46.47;100940.50;5016694;28;20506;-73
2022/06/10 00:47:39;;;;;;;33.47;16.67;;;;;;;37.74;45.91;100944.13;5014989;28;20436;-73
2022/06/10 00:50:20;;;;;;;30.43;18.20;;;;;;;37.60;45.97;100949.56;5014786;28;20447;-74
2022/06/10 00:52:54;;;;;;;28.40;15.13;;;;;;;37.43;47.07;100960.19;5014824;28;20416;-74
2022/06/10 00:55:28;;;;;;;34.10;16.17;;;;;;;37.55;46.47;100955.88;5014787;28;20424;-73
2022/06/10 00:58:01;;;;;;;27.50;15.83;;;;;;;37.48;46.42;100951.97;5014683;28;20448;-73
2022/06/10 01:00:28;;;;;;;28.57;16.53;;;;;;;37.64;45.77;100942.44;5014968;28;20431;-74
2022/06/10 01:02:55;;;;;;;30.07;17.00;;;;;;;37.80;45.53;100942.91;5014639;28;20425;-73
2022/06/10 01:05:26;;;;;;;30.00;16.87;;;;;;;37.76;45.89;100942.75;5014571;28;20448;-74
2022/06/10 01:08:01;;;;;;;20.77;15.07;;;;;;;37.75;45.72;100935.72;5014574;28;20491;-73
2022/06/10 01:10:33;;;;;;;25.43;17.67;;;;;;;37.63;46.22;100930.03;5014500;28;20431;-73
2022/06/10 01:13:37;;;;;;;27.47;15.97;;;;;;;37.73;46.00;100929.78;5014358;28;20484;-73
2022/06/10 01:16:47;;;;;;;22.97;15.27;;;;;;;37.76;45.30;100934.63;5016061;28;20495;-73
2022/06/10 01:19:35;;;;;;;23.67;14.73;;;;;;;37.88;45.01;100953.09;5004080;28;20421;-74
2022/06/10 01:22:09;;;;;;;30.57;16.77;;;;;;;37.61;44.09;100954.66;5014342;28;20519;-74
2022/06/10 01:25:08;;;;;;;27.30;15.73;;;;;;;37.74;43.22;100966.59;5014224;28;20426;-73
2022/06/10 01:27:49;;;;;;;18.33;14.00;;;;;;;37.69;43.81;100982.13;5015585;28;20499;-73
2022/06/10 01:30:54;;;;;;;34.83;16.20;;;;;;;37.89;44.45;101000.72;5014195;28;20960;-73
2022/06/10 01:33:32;;;;;;;27.10;14.13;;;;;;;38.04;44.52;101013.13;5017838;28;20478;-73
2022/06/10 01:36:29;;;;;;;24.57;13.90;;;;;;;38.16;44.06;101033.16;5033808;28;20442;-73
2022/06/10 01:39:06;;;;;;;27.70;16.87;;;;;;;38.18;43.93;101076.19;5033768;28;20462;-73
2022/06/10 01:41:48;;;;;;;38.60;14.83;;;;;;;37.33;39.72;101045.84;5033671;28;20507;-73
2022/06/10 01:44:34;;;;;;;36.40;14.10;;;;;;;36.27;41.81;101045.50;5033641;28;20505;-73
2022/06/10 01:47:19;;;;;;;34.97;13.73;;;;;;;36.06;42.26;101077.34;5035340;28;20485;-73
2022/06/10 01:50:00;;;;;;;32.30;11.10;;;;;;;36.03;42.45;101126.50;5033288;28;20467;-73
2022/06/10 01:52:32;;;;;;;26.80;8.87;;;;;;;35.91;41.82;101153.94;5033679;28;21091;-73
2022/06/10 01:55:24;;;;;;;19.30;6.23;;;;;;;35.09;44.27;101175.28;5033435;28;20803;-73
2022/06/10 01:58:05;;;;;;;10.13;4.37;;;;;;;35.14;42.80;101125.91;5029396;28;20431;-73
2022/06/10 02:00:34;;;;;;;12.37;4.97;;;;;;;35.38;42.74;101069.34;5033422;28;20420;-73
2022/06/10 02:03:18;;;;;;;12.50;5.83;;;;;;;35.59;41.61;101064.59;5033320;28;20439;-73
2022/06/10 02:05:51;;;;;;;20.87;6.27;;;;;;;35.56;41.51;101075.97;5033308;28;20447;-73
2022/06/10 02:08:22;;;;;;;16.30;6.17;;;;;;;35.68;41.70;101042.13;5033081;28;20549;-73
2022/06/10 02:11:05;;;;;;;19.47;8.90;;;;;;;35.72;42.58;100994.56;5033123;28;20501;-73
2022/06/10 02:13:36;;;;;;;26.67;8.13;;;;;;;35.75;40.85;100974.31;5033175;28;20510;-73
2022/06/10 02:16:07;;;;;;;15.40;5.20;;;;;;;35.84;40.18;100980.66;5033014;28;20447;-73
2022/06/10 02:19:10;;;;;;;15.53;6.60;;;;;;;35.81;39.99;100965.06;5032390;28;20423;-73
2022/06/10 02:21:36;;;;;;;24.97;7.10;;;;;;;35.80;40.04;100955.34;5032264;28;20952;-72
2022/06/10 02:24:18;;;;;;;36.10;7.00;;;;;;;35.83;40.42;100949.34;5032062;28;20447;-73
2022/06/10 02:26:47;;;;;;;15.90;7.23;;;;;;;35.86;40.29;100935.31;5032278;28;20485;-73
2022/06/10 02:29:21;;;;;;;17.90;6.47;;;;;;;35.89;40.61;100942.81;5032169;28;20521;-73
2022/06/10 02:31:56;;;;;;;19.33;8.30;;;;;;;35.88;40.64;100960.09;5032437;28;20418;-73
2022/06/10 02:34:23;;;;;;;19.60;10.50;;;;;;;35.78;41.02;100979.09;5047141;28;20547;-73
2022/06/10 02:37:02;;;;;;;20.47;9.67;;;;;;;35.80;40.90;100976.94;5054089;28;20413;-73
2022/06/10 02:39:43;;;;;;;16.00;7.13;;;;;;;35.82;40.23;100977.44;5035892;28;20556;-73
2022/06/10 02:42:21;;;;;;;24.93;7.77;;;;;;;35.93;39.05;100962.75;5035666;28;20437;-73
2022/06/10 02:45:03;;;;;;;20.40;8.90;;;;;;;35.95;39.28;100965.97;5035863;28;20414;-73
2022/06/10 02:47:43;;;;;;;24.47;7.17;;;;;;;35.81;39.91;100959.66;5035689;28;20545;-73
2022/06/10 02:50:11;;;;;;;23.13;10.30;;;;;;;35.58;40.98;100950.47;5035647;28;20975;-72
2022/06/10 02:52:39;;;;;;;27.50;10.87;;;;;;;35.56;41.10;100935.69;5035516;28;20442;-72
2022/06/10 02:55:12;;;;;;;32.93;10.53;;;;;;;35.65;41.13;100910.44;5035531;28;20423;-73
2022/06/10 03:03:16;;;;;;;22.07;11.80;;;;;;;35.95;41.05;100879.59;5052709;28;20393;-73
2022/06/10 03:05:57;;;;;;;18.60;10.47;;;;;;;36.06;41.41;100886.44;5051635;28;20457;-73
2022/06/10 03:08:35;;;;;;;28.13;10.93;;;;;;;36.00;41.64;100920.00;5053046;28;20492;-73
2022/06/10 03:11:01;;;;;;;27.53;8.50;;;;;;;35.90;40.88;100944.41;5035458;28;20921;-72
2022/06/10 03:13:46;;;;;;;28.00;8.20;;;;;;;35.53;41.66;100950.53;5035793;28;20425;-73
2022/06/10 03:16:15;;;;;;;26.83;7.53;;;;;;;35.22;42.45;100955.41;5034280;28;20409;-73
2022/06/10 03:19:22;;;;;;;18.57;7.47;;;;;;;34.95;43.35;100955.94;5034744;28;20897;-72
2022/06/10 03:21:54;;;;;;;19.83;8.80;;;;;;;35.16;42.95;100961.94;4989320;28;20518;-72
2022/06/10 03:24:29;;;;;;;30.57;10.53;;;;;;;34.83;43.73;100958.97;5034394;28;20468;-73
2022/06/10 03:27:06;;;;;;;24.10;10.40;;;;;;;35.04;43.81;100950.72;5034370;28;20410;-71
2022/06/10 03:30:01;;;;;;;22.53;8.50;;;;;;;35.39;43.31;100947.69;5034254;28;20450;-73
2022/06/10 03:32:30;;;;;;;28.43;13.63;;;;;;;35.60;42.27;100950.97;5034095;28;20441;-74
2022/06/10 03:35:18;;;;;;;26.87;10.17;;;;;;;35.51;41.52;100961.63;5050758;28;20884;-73
2022/06/10 03:37:47;;;;;;;18.83;10.20;;;;;;;35.61;41.73;100976.09;5034002;28;20443;-73
2022/06/10 03:40:24;;;;;;;21.67;8.67;;;;;;;35.46;42.41;100985.94;5034186;28;20919;-73
2022/06/10 03:42:56;;;;;;;17.60;8.70;;;;;;;34.94;42.81;100974.00;5034216;28;20951;-73
2022/06/10 03:45:27;;;;;;;18.57;7.20;;;;;;;35.10;42.87;100961.19;5034088;28;20468;-73
2022/06/10 03:47:54;;;;;;;30.13;10.00;;;;;;;35.02;43.29;100942.13;5033920;28;20433;-73
2022/06/10 03:50:32;;;;;;;26.60;10.93;;;;;;;34.80;44.48;100943.34;5034076;28;20418;-73
2022/06/10 03:52:58;;;;;;;24.20;9.70;;;;;;;35.20;43.58;100944.91;5050517;28;20495;-73
2022/06/10 03:55:24;;;;;;;17.87;6.90;;;;;;;35.50;43.10;100956.50;5033645;28;20430;-74
2022/06/10 03:57:50;;;;;;;25.30;8.30;;;;;;;35.83;42.06;100976.34;5051853;28;20867;-73
2022/06/10 04:00:24;;;;;;;14.90;7.03;;;;;;;35.64;41.13;100999.78;5033829;28;20430;-73
2022/06/10 04:02:50;;;;;;;13.57;8.23;;;;;;;35.28;41.63;101005.50;5034056;28;20422;-73
2022/06/10 04:05:17;;;;;;;18.90;9.43;;;;;;;35.27;42.36;100999.31;5033527;28;20871;-73
2022/06/10 04:07:44;;;;;;;15.73;6.90;;;;;;;35.07;42.46;101010.28;5033847;28;20434;-72
2022/06/10 04:10:14;;;;;;;16.30;7.00;;;;;;;35.05;42.73;101023.25;5033824;28;20427;-73
2022/06/10 04:12:40;;;;;;;16.70;6.43;;;;;;;34.92;43.50;101018.47;5033578;28;20446;-73
2022/06/10 04:15:07;;;;;;;17.67;7.33;;;;;;;35.24;43.41;101012.59;5033830;28;20831;-73
2022/06/10 04:17:34;;;;;;;22.30;12.70;;;;;;;35.33;42.17;101002.78;5033800;28;20426;-73
2022/06/10 04:20:00;;;;;;;31.87;12.43;;;;;;;35.56;42.71;101012.03;5033683;28;20446;-73
2022/06/10 04:22:27;;;;;;;21.57;11.23;;;;;;;35.55;42.37;101006.91;5033152;28;20495;-73
2022/06/10 04:24:53;;;;;;;20.10;7.40;;;;;;;35.18;42.29;101003.72;5034454;28;20457;-73
2022/06/10 04:27:20;;;;;;;20.57;8.60;;;;;;;34.77;43.22;101005.91;5034317;28;20430;-73
2022/06/10 04:29:46;;;;;;;21.77;8.20;;;;;;;34.86;43.25;101006.91;5051804;28;20476;-73
2022/06/10 04:32:12;;;;;;;15.90;8.83;;;;;;;34.61;44.05;100997.13;5034206;28;20443;-73
2022/06/10 04:34:38;;;;;;;18.80;9.93;;;;;;;34.78;43.78;100999.44;5030790;28;20463;-73
2022/06/10 04:37:05;;;;;;;23.73;8.47;;;;;;;34.85;43.06;100986.44;5031610;28;20415;-73
2022/06/10 04:39:31;;;;;;;26.23;10.20;;;;;;;34.64;43.78;100993.06;5030890;28;20791;-73
2022/06/10 04:41:57;;;;;;;18.37;8.37;;;;;;;34.42;44.07;100986.19;5030772;28;20841;-73
2022/06/10 04:44:23;;;;;;;15.90;8.90;;;;;;;34.79;44.23;100982.19;5030887;28;20424;-73
2022/06/10 04:46:49;;;;;;;18.63;8.83;;;;;;;35.24;43.77;100974.81;5030128;28;20927;-74
2022/06/10 04:49:15;;;;;;;18.20;7.80;;;;;;;35.50;43.36;100978.91;5030184;28;21077;-73
2022/06/10 04:51:42;;;;;;;24.37;8.00;;;;;;;35.74;42.87;100981.59;5030426;28;20424;-73
2022/06/10 04:54:08;;;;;;;16.67;8.50;;;;;;;35.88;42.24;100975.50;5031525;28;20396;-73
2022/06/10 04:56:35;;;;;;;12.27;6.30;;;;;;;35.87;41.96;100974.69;5030212;28;20415;-73
2022/06/10 04:59:01;;;;;;;17.87;7.67;;;;;;;35.91;42.43;100967.66;5031468;28;20762;-74
2022/06/10 05:01:27;;;;;;;14.27;8.27;;;;;;;35.97;42.42;100962.97;5030099;28;20411;-73
2022/06/10 05:03:53;;;;;;;11.40;6.63;;;;;;;35.97;42.08;100966.50;5030169;28;20426;-73
2022/06/10 05:06:19;;;;;;;12.63;6.80;;;;;;;36.04;42.22;100974.25;5031274;28;20439;-74
2022/06/10 05:08:45;;;;;;;13.90;6.80;;;;;;;35.73;42.56;100980.00;5032845;28;20455;-73
2022/06/10 05:11:11;;;;;;;15.47;8.33;;;;;;;35.31;43.31;100982.59;5033508;28;20510;-74
2022/06/10 05:13:38;;;;;;;22.70;10.30;;;;;;;34.92;44.25;100983.41;5033503;28;20417;-73
2022/06/10 05:16:04;;;;;;;18.17;8.10;;;;;;;34.88;44.60;100991.28;5033532;28;20876;-73
2022/06/10 05:18:31;;;;;;;20.93;10.73;;;;;;;34.72;45.44;100995.16;5033462;28;20494;-73
2022/06/10 05:20:58;;;;;;;13.73;8.77;;;;;;;34.48;46.36;101013.91;5033482;28;20426;-73
2022/06/10 05:23:25;;;;;;;18.73;10.27;;;;;;;34.40;46.72;101004.50;5033198;28;20458;-73
2022/06/10 05:25:52;;;;;;;18.00;7.90;;;;;;;34.51;46.51;101012.56;5033361;28;20423;-73
2022/06/10 05:28:20;;;;;;;21.73;9.03;;;;;;;34.52;45.91;101014.97;5033255;28;20546;-73
2022/06/10 05:30:46;;;;;;;21.83;10.60;;;;;;;34.59;46.28;101012.78;5034663;28;20399;-73
2022/06/10 05:33:13;;;;;;;21.40;11.17;;;;;;;34.70;45.61;101018.91;5036790;28;20463;-73
2022/06/10 05:35:40;;;;;;;19.40;10.63;;;;;;;34.56;46.06;101034.06;5036928;28;20546;-72
2022/06/10 05:38:07;;;;;;;19.83;9.07;;;;;;;34.62;46.42;101047.25;5036649;28;20476;-73
2022/06/10 05:40:34;;;;;;;17.03;9.57;;;;;;;35.01;45.41;101051.84;5036665;28;20437;-73
2022/06/10 05:43:00;;;;;;;22.90;8.57;;;;;;;34.98;44.40;101064.00;5036940;28;20446;-73
2022/06/10 05:45:27;;;;;;;21.20;10.47;;;;;;;34.95;44.73;101067.25;5036574;28;20430;-73
2022/06/10 05:47:58;;;;;;;12.23;8.57;;;;;;;35.22;43.95;101074.06;5035594;28;20505;-71
2022/06/10 05:50:28;;;;;;;20.93;9.30;;;;;;;35.36;43.05;101085.00;5062661;28;20996;-73
2022/06/10 05:52:55;;;;;;;13.63;9.70;;;;;;;35.39;43.08;101087.94;5027348;28;20435;-71
2022/06/10 05:55:22;;;;;;;14.90;6.77;;;;;;;35.47;43.19;101084.66;5054156;28;20399;-73
2022/06/10 05:57:50;;;;;;;13.00;6.77;;;;;;;35.26;43.65;101088.59;5053853;28;20399;-73
2022/06/10 06:00:23;;;;;;;16.10;9.07;;;;;;;35.19;43.34;101077.34;5035946;28;20513;-73
2022/06/10 06:02:49;;;;;;;16.23;8.77;;;;;;;35.37;43.40;101073.16;5036026;28;20427;-72
2022/06/10 06:05:17;;;;;;;17.27;8.97;;;;;;;35.48;43.90;101083.59;5053696;28;20488;-70
2022/06/10 06:07:45;;;;;;;23.67;7.50;;;;;;;35.61;43.55;101084.03;5034951;28;20415;-70
2022/06/10 06:10:15;;;;;;;15.30;9.17;;;;;;;35.46;43.49;101088.44;5034794;28;20474;-70
2022/06/10 06:12:42;;;;;;;13.60;8.90;;;;;;;35.07;44.18;101098.47;5035225;28;20427;-71
2022/06/10 06:15:09;;;;;;;15.90;10.10;;;;;;;35.03;44.81;101100.91;5035647;28;20425;-72
2022/06/10 06:17:35;;;;;;;23.80;12.07;;;;;;;35.07;44.67;101114.63;5035855;28;20484;-70
2022/06/10 06:20:03;;;;;;;22.20;13.00;;;;;;;34.96;45.56;101114.69;5034899;28;20453;-69
2022/06/10 06:22:29;;;;;;;16.53;10.60;;;;;;;34.94;45.61;101114.19;5035166;28;20481;-70
2022/06/10 06:24:55;;;;;;;19.10;11.17;;;;;;;35.20;44.69;101124.78;5035317;28;20881;-72
2022/06/10 06:27:21;;;;;;;16.67;9.97;;;;;;;35.27;44.01;101107.19;5034462;28;20450;-71
2022/06/10 06:29:47;;;;;;;17.47;11.20;;;;;;;35.19;44.81;101121.28;5034534;28;20455;-68
2022/06/10 06:32:14;;;;;;;22.60;10.47;;;;;;;35.22;44.53;101103.72;5052833;28;20431;-68
2022/06/10 06:34:40;;;;;;;32.27;12.43;;;;;;;35.43;44.64;101107.91;5053449;28;20552;-68
2022/06/10 06:37:11;;;;;;;25.20;12.50;;;;;;;35.53;43.83;101107.81;5036100;28;20481;-68
2022/06/10 06:39:37;;;;;;;16.40;10.93;;;;;;;35.70;43.76;101109.28;5035838;28;20453;-67
2022/06/10 06:42:03;;;;;;;20.77;12.83;;;;;;;35.63;42.79;101112.31;5035061;28;20446;-68
2022/06/10 06:44:30;;;;;;;21.30;15.03;;;;;;;35.38;43.64;101115.22;5053482;28;20406;-69
2022/06/10 06:46:56;;;;;;;26.63;13.27;;;;;;;35.33;44.13;101109.84;5035359;28;20418;-69
2022/06/10 06:49:25;;;;;;;22.63;14.00;;;;;;;35.35;44.59;101104.97;5035456;28;20497;-68
2022/06/10 06:51:52;;;;;;;28.87;18.40;;;;;;;35.38;44.34;101116.00;5035090;28;20484;-70
2022/06/10 06:54:19;;;;;;;19.23;14.53;;;;;;;35.32;44.41;101116.34;5053328;28;20399;-70
2022/06/10 06:56:46;;;;;;;19.10;14.37;;;;;;;35.22;44.45;101118.00;5034511;28;20418;-69
2022/06/10 06:59:13;;;;;;;26.43;17.70;;;;;;;35.19;44.36;101117.78;5034986;28;20415;-70
2022/06/10 07:01:39;;;;;;;30.67;16.53;;;;;;;34.83;45.33;101111.78;5035169;28;20517;-70
2022/06/10 07:04:06;;;;;;;30.83;16.60;;;;;;;34.93;45.79;101111.78;5035516;28;20423;-68
2022/06/10 07:06:34;;;;;;;29.23;19.10;;;;;;;34.63;46.29;101128.88;5035433;28;20492;-69
2022/06/10 07:09:02;;;;;;;32.23;19.93;;;;;;;34.54;46.87;101136.72;5053518;28;20890;-69
2022/06/10 07:11:28;;;;;;;30.20;19.63;;;;;;;34.68;46.37;101140.44;5035219;28;20422;-69
2022/06/10 07:13:54;;;;;;;32.30;20.57;;;;;;;34.54;46.39;101144.00;5035370;28;20506;-69
2022/06/10 07:16:20;;;;;;;34.43;22.33;;;;;;;34.32;46.97;101144.31;5053767;28;20457;-70
2022/06/10 07:18:46;;;;;;;33.53;23.83;;;;;;;34.34;46.55;101139.47;5035258;28;20952;-70
2022/06/10 07:21:12;;;;;;;37.67;23.20;;;;;;;34.33;46.59;101141.34;5035224;28;20492;-70
2022/06/10 07:23:38;;;;;;;32.10;22.47;;;;;;;34.38;46.23;101135.16;5035021;28;20422;-70
2022/06/10 07:26:05;;;;;;;27.50;19.43;;;;;;;34.63;46.17;101139.66;5035237;28;20447;-70
2022/06/10 07:28:31;;;;;;;28.87;23.30;;;;;;;34.72;45.67;101136.09;5051667;28;20501;-70
2022/06/10 07:30:58;;;;;;;42.43;21.80;;;;;;;34.88;45.47;101144.91;5052439;28;20418;-69
2022/06/10 07:33:24;;;;;;;24.17;20.73;;;;;;;35.02;45.33;101147.81;5034871;28;20430;-69
2022/06/10 07:35:50;;;;;;;32.83;22.00;;;;;;;34.96;45.31;101160.53;5034837;28;20841;-69
2022/06/10 07:38:16;;;;;;;32.17;25.23;;;;;;;35.22;44.92;101160.34;5051394;28;20928;-69
2022/06/10 07:43:30;;;;;;;29.87;21.17;;;;;;;35.43;43.62;101169.16;5052883;28;20410;-70
2022/06/10 07:45:58;;;;;;;34.33;23.80;;;;;;;35.17;44.79;101182.78;5034709;28;20423;-70
2022/06/10 07:48:24;;;;;;;34.63;26.17;;;;;;;34.90;45.35;101180.47;5051611;28;20474;-70
2022/06/10 07:50:52;;;;;;;34.87;22.23;;;;;;;34.97;44.96;101183.69;5035039;28;20866;-70
2022/06/10 07:53:19;;;;;;;35.63;22.23;;;;;;;35.06;44.71;101186.63;5034828;28;20980;-68
2022/06/10 07:55:46;;;;;;;40.57;20.80;;;;;;;35.09;44.95;101191.44;5051335;28;20463;-68
2022/06/10 07:58:14;;;;;;;29.87;19.60;;;;;;;35.21;44.54;101205.41;5034669;28;20494;-68
2022/06/10 08:00:41;;;;;;;30.93;21.93;;;;;;;35.22;44.03;101211.59;5034618;28;20447;-68
2022/06/10 08:03:07;;;;;;;37.07;20.70;;;;;;;35.49;43.58;101217.41;5034583;28;20418;-68
2022/06/10 08:05:34;;;;;;;26.63;22.07;;;;;;;35.50;43.18;101218.19;5034691;28;20449;-69
2022/06/10 08:08:01;;;;;;;30.43;19.80;;;;;;;35.73;43.08;101236.38;5034546;28;20501;-68
2022/06/10 08:10:31;;;;;;;29.13;21.47;;;;;;;35.82;44.11;101241.16;5034490;28;20414;-68
2022/06/10 08:12:57;;;;;;;32.37;25.17;;;;;;;35.88;43.83;101248.94;5070562;28;20421;-69
2022/06/10 08:15:24;;;;;;;34.37;23.53;;;;;;;35.99;43.50;101253.19;5054358;28;20406;-68
2022/06/10 08:17:52;;;;;;;42.57;24.60;;;;;;;36.01;43.83;101256.41;5064147;28;20913;-68
2022/06/10 08:23:28;;;;;;;40.63;23.00;;;;;;;35.84;44.62;101269.47;5050879;28;20860;-69
2022/06/10 08:25:56;;;;;;;44.33;22.63;;;;;;;35.83;44.60;101277.88;5033658;28;20422;-69
2022/06/10 08:28:23;;;;;;;43.67;22.53;;;;;;;35.83;45.28;101278.66;5034213;28;20523;-68
2022/06/10 08:30:49;;;;;;;29.50;19.27;;;;;;;35.89;44.33;101277.53;5052403;28;20438;-69
2022/06/10 08:33:16;;;;;;;25.83;15.90;;;;;;;35.95;43.29;101289.13;5052551;28;20398;-69
2022/06/10 08:35:42;;;;;;;24.77;15.17;;;;;;;36.06;43.39;101288.78;5033670;28;20442;-68
2022/06/10 08:38:12;;;;;;;30.57;13.50;;;;;;;36.13;44.27;101301.16;5033604;28;20502;-68
2022/06/10 08:40:56;;;;;;;23.83;14.60;;;;;;;36.13;43.96;101299.25;5034162;28;20825;-70
2022/06/10 08:43:41;;;;;;;28.83;16.33;;;;;;;36.22;44.10;101299.47;5054734;28;20398;-71
2022/06/10 08:46:18;;;;;;;35.57;17.37;;;;;;;36.26;44.08;101284.28;5037954;28;20502;-71
2022/06/10 08:48:59;;;;;;;21.57;15.30;;;;;;;36.34;44.28;101270.19;5054638;28;20453;-71
2022/06/10 08:51:38;;;;;;;19.10;12.17;;;;;;;36.33;44.46;101273.94;5047967;28;20480;-69
2022/06/10 08:54:19;;;;;;;17.30;10.10;;;;;;;36.41;44.53;101278.78;5033975;28;20426;-72
2022/06/10 08:56:52;;;;;;;21.43;9.30;;;;;;;36.42;45.23;101280.38;5037611;28;20472;-73
2022/06/10 08:59:28;;;;;;;21.37;8.73;;;;;;;36.41;45.26;101292.28;5035961;28;20569;-71
2022/06/10 09:02:09;;;;;;;18.70;8.10;;;;;;;36.48;44.85;101300.06;5035948;28;20414;-71
2022/06/10 09:04:52;;;;;;;13.00;7.57;;;;;;;36.47;44.86;101301.16;5053752;28;20430;-71
2022/06/10 09:07:28;;;;;;;18.13;8.90;;;;;;;36.50;45.41;101300.56;5020535;28;20441;-71
2022/06/10 09:09:57;;;;;;;19.63;7.13;;;;;;;36.58;44.57;101306.13;5035637;28;20446;-71
2022/06/10 09:12:46;;;;;;;19.63;8.90;;;;;;;36.56;45.17;101302.94;5035631;28;20446;-71
2022/06/10 09:15:15;;;;;;;17.53;8.57;;;;;;;36.65;45.28;101316.63;5036359;28;20414;-71
2022/06/10 09:17:47;;;;;;;15.43;8.43;;;;;;;36.69;45.60;101316.84;5035599;28;20457;-69
2022/06/10 09:20:23;;;;;;;20.07;8.60;;;;;;;36.73;44.83;101326.81;5035585;28;20442;-69
2022/06/10 09:22:55;;;;;;;14.93;7.20;;;;;;;36.73;45.08;101321.41;5034259;28;20483;-69
2022/06/10 09:25:31;;;;;;;12.47;6.07;;;;;;;36.70;44.93;101321.16;5035435;28;20439;-68
2022/06/10 09:27:59;;;;;;;30.57;9.17;;;;;;;36.78;44.82;101334.88;5035315;28;20422;-71
2022/06/10 09:30:31;;;;;;;30.60;9.00;;;;;;;36.83;44.64;101336.69;5036199;28;20454;-74
2022/06/10 09:33:12;;;;;;;19.37;8.40;;;;;;;36.82;45.37;101335.09;5037046;28;20433;-72
2022/06/10 09:35:42;;;;;;;18.97;7.73;;;;;;;36.81;45.36;101334.28;5055513;28;20407;-72
2022/06/10 09:38:13;;;;;;;15.10;7.00;;;;;;;36.90;45.09;101334.50;5055178;28;20449;-72
2022/06/10 09:40:52;;;;;;;22.33;8.47;;;;;;;36.80;44.93;101329.19;5037335;28;20422;-71
2022/06/10 09:43:41;;;;;;;17.17;7.83;;;;;;;36.80;45.42;101312.94;5055389;28;20402;-73
2022/06/10 09:46:24;;;;;;;16.63;6.70;;;;;;;36.87;45.73;101308.03;5036977;28;20422;-72
2022/06/10 09:48:53;;;;;;;20.37;10.07;;;;;;;36.49;45.70;101293.56;5055133;28;20449;-72
2022/06/10 09:51:29;;;;;;;16.60;8.17;;;;;;;36.58;45.37;101281.81;5053449;28;20932;-72
2022/06/10 09:54:12;;;;;;;19.60;9.30;;;;;;;36.63;46.00;101285.56;5036049;28;20418;-72
2022/06/10 09:56:57;;;;;;;21.13;8.50;;;;;;;36.72;44.71;101264.94;5036776;28;20810;-72
2022/06/10 09:59:47;;;;;;;18.43;9.50;;;;;;;36.45;46.00;101241.97;5036628;28;20437;-71
2022/06/10 10:02:54;;;;;;;21.57;9.97;;;;;;;36.58;46.00;101241.28;5036593;28;20419;-71
2022/06/10 10:06:10;;;;;;;16.00;8.63;;;;;;;36.59;45.96;101240.22;4990367;28;20438;-72
2022/06/10 10:09:13;;;;;;;31.83;10.00;;;;;;;36.70;45.31;101221.16;4973614;28;20466;-72
2022/06/10 10:12:08;;;;;;;17.07;8.57;;;;;;;36.88;45.34;101217.72;5054488;28;20892;-72
2022/06/10 10:14:49;;;;;;;13.90;7.53;;;;;;;36.93;45.29;101216.84;5036384;28;20863;-72
2022/06/10 10:17:24;;;;;;;15.37;8.00;;;;;;;36.98;45.15;101205.97;5054584;28;20746;-71
2022/06/10 10:20:09;;;;;;;22.03;9.40;;;;;;;37.04;45.20;101204.81;5054512;28;20386;-71
2022/06/10 10:22:50;;;;;;;20.23;8.77;;;;;;;37.24;44.66;101223.44;5036229;28;20414;-70
2022/06/10 10:25:23;;;;;;;17.93;7.87;;;;;;;37.37;44.61;101217.31;5054304;28;20434;-70
2022/06/10 10:27:50;;;;;;;22.03;12.70;;;;;;;37.39;44.68;101211.63;5054378;28;20456;-69
2022/06/10 10:30:34;;;;;;;18.93;9.90;;;;;;;37.28;44.53;101215.56;5019666;28;20512;-69
2022/06/10 10:33:12;;;;;;;22.60;8.67;;;;;;;37.32;44.64;101203.84;5036074;28;20446;-69
2022/06/10 10:35:40;;;;;;;15.17;8.50;;;;;;;37.34;44.93;101206.28;5032769;28;20938;-69
2022/06/10 10:38:14;;;;;;;14.53;9.90;;;;;;;37.04;45.49;101207.50;5034264;28;20988;-69
2022/06/10 10:40:43;;;;;;;16.23;7.80;;;;;;;37.07;45.00;101201.50;5049767;28;20400;-70
2022/06/10 10:43:21;;;;;;;21.60;8.63;;;;;;;37.12;46.08;101204.13;5032564;28;20415;-68
2022/06/10 10:45:56;;;;;;;16.33;8.37;;;;;;;37.11;45.83;101197.94;5032788;28;20433;-68
2022/06/10 10:48:27;;;;;;;16.97;8.93;;;;;;;37.03;46.03;101195.88;5032497;28;20533;-67
2022/06/10 10:51:03;;;;;;;13.83;7.90;;;;;;;36.85;46.36;101186.63;5032533;28;20918;-67
2022/06/10 10:53:45;;;;;;;18.00;9.67;;;;;;;36.57;46.63;101172.13;5032376;28;20419;-69
2022/06/10 10:56:14;;;;;;;17.40;9.80;;;;;;;36.45;47.18;101163.63;5032291;28;20457;-69
2022/06/10 10:58:48;;;;;;;17.40;7.80;;;;;;;36.61;46.92;101144.53;5033247;28;20407;-72
2022/06/10 11:01:46;;;;;;;18.03;9.77;;;;;;;36.55;47.10;101143.78;5033865;28;20442;-69
2022/06/10 11:04:24;;;;;;;13.40;8.50;;;;;;;36.87;46.40;101124.19;5017362;28;20450;-67
2022/06/10 11:07:16;;;;;;;19.23;8.67;;;;;;;37.15;45.15;101116.22;5031593;28;20416;-69
2022/06/10 11:09:47;;;;;;;19.70;8.93;;;;;;;37.24;45.29;101120.63;5033590;28;20466;-69
2022/06/10 11:12:17;;;;;;;20.93;9.63;;;;;;;37.48;45.21;101106.22;5032109;28;20465;-69
2022/06/10 11:14:48;;;;;;;16.13;9.00;;;;;;;37.34;45.15;101087.25;5031993;28;20404;-69
2022/06/10 11:17:18;;;;;;;21.53;8.40;;;;;;;37.35;44.76;101084.25;5015688;28;20417;-69
2022/06/10 11:19:46;;;;;;;20.47;9.80;;;;;;;37.31;44.59;101076.97;5033412;28;20424;-69
2022/06/10 11:22:31;;;;;;;20.07;8.77;;;;;;;37.13;44.59;101082.13;5031936;28;20932;-69
2022/06/10 11:25:03;;;;;;;15.73;9.80;;;;;;;37.31;44.63;101090.50;5031812;28;20452;-69
2022/06/10 11:27:33;;;;;;;15.20;8.77;;;;;;;37.29;43.84;101090.81;5033395;28;20767;-70
2022/06/10 11:30:02;;;;;;;17.30;8.20;;;;;;;36.96;45.31;101092.69;5033240;28;20435;-70
2022/06/10 11:32:36;;;;;;;15.83;7.20;;;;;;;37.17;44.16;101093.16;5032967;28;20946;-69
2022/06/10 11:35:27;;;;;;;16.90;8.93;;;;;;;37.09;44.47;101083.84;5031461;28;20532;-69
2022/06/10 11:38:04;;;;;;;15.70;8.43;;;;;;;36.87;44.39;101072.81;5031474;28;20423;-69
2022/06/10 11:40:48;;;;;;;17.67;9.40;;;;;;;37.06;44.23;101070.09;5031669;28;20477;-69
2022/06/10 11:43:33;;;;;;;15.50;9.37;;;;;;;37.25;43.71;101072.75;5031527;28;20806;-69
2022/06/10 11:46:06;;;;;;;18.20;10.17;;;;;;;37.09;44.02;101078.41;5031513;28;20415;-69
2022/06/10 11:48:42;;;;;;;18.47;8.07;;;;;;;37.04;43.23;101075.78;5033128;28;20447;-69
2022/06/10 11:51:17;;;;;;;14.40;9.27;;;;;;;36.77;44.14;101078.34;5031345;28;20457;-69